createdAt,value
2022-10-07T00:01:11.877Z,3.33
2022-10-07T00:03:40.788Z,5.03
2022-10-07T00:06:13.238Z,5.17
2022-10-07T00:08:44.860Z,4.20
2022-10-07T00:11:15.616Z,5.37
2022-10-07T00:13:45.552Z,6.20
2022-10-07T00:16:15.809Z,6.20
2022-10-07T00:18:45.253Z,6.40
2022-10-07T00:21:15.356Z,6.17
2022-10-07T00:23:45.901Z,6.57
2022-10-07T00:26:15.983Z,6.37
2022-10-07T00:28:44.651Z,5.00
2022-10-07T00:31:16.810Z,4.90
2022-10-07T00:33:45.483Z,4.47
2022-10-07T00:36:15.954Z,4.90
2022-10-07T00:38:45.440Z,4.37
2022-10-07T00:41:19.166Z,3.67
2022-10-07T00:43:47.689Z,2.70
2022-10-07T00:46:22.744Z,2.90
2022-10-07T00:48:51.286Z,2.50
2022-10-07T00:51:19.447Z,3.13
2022-10-07T00:53:53.395Z,3.10
2022-10-07T00:56:22.236Z,2.90
2022-10-07T00:58:51.448Z,3.30
2022-10-07T01:01:20.635Z,2.70
2022-10-07T01:03:49.477Z,2.33
2022-10-07T01:06:17.901Z,2.70
2022-10-07T01:08:48.756Z,2.20
2022-10-07T01:11:29.607Z,3.40
2022-10-07T01:14:07.434Z,2.87
2022-10-07T01:16:44.223Z,3.03
2022-10-07T01:19:33.738Z,4.10
2022-10-07T01:22:16.020Z,3.67
2022-10-07T01:24:51.233Z,4.70
2022-10-07T01:27:22.736Z,3.93
2022-10-07T01:29:56.943Z,4.70
2022-10-07T01:32:32.135Z,3.43
2022-10-07T01:35:02.757Z,3.83
2022-10-07T01:37:36.086Z,2.80
2022-10-07T01:40:08.691Z,4.13
2022-10-07T01:42:38.869Z,3.30
2022-10-07T01:45:11.139Z,3.50
2022-10-07T01:47:39.204Z,3.37
2022-10-07T01:50:13.151Z,3.07
2022-10-07T01:52:59.586Z,3.40
2022-10-07T01:55:42.301Z,3.10
2022-10-07T01:58:23.657Z,3.90
2022-10-07T02:00:59.397Z,4.73
2022-10-07T02:03:53.370Z,4.90
2022-10-07T02:06:31.297Z,4.57
2022-10-07T02:09:08.608Z,5.10
2022-10-07T02:11:41.253Z,4.67
2022-10-07T02:14:13.524Z,6.10
2022-10-07T02:16:45.192Z,5.23
2022-10-07T02:19:17.377Z,5.07
2022-10-07T02:21:49.232Z,4.80
2022-10-07T02:24:20.276Z,4.60
2022-10-07T02:26:50.883Z,4.80
2022-10-07T02:29:23.373Z,4.20
2022-10-07T02:31:53.287Z,5.17
2022-10-07T02:34:23.969Z,5.50
2022-10-07T02:36:55.881Z,5.20
2022-10-07T02:39:24.259Z,4.90
2022-10-07T02:42:00.074Z,5.40
2022-10-07T02:44:32.679Z,5.60
2022-10-07T02:47:06.299Z,4.97
2022-10-07T02:49:39.193Z,4.63
2022-10-07T02:52:10.377Z,5.20
2022-10-07T02:54:52.818Z,4.73
2022-10-07T02:57:22.943Z,5.37
2022-10-07T02:59:53.592Z,5.30
2022-10-07T03:02:32.582Z,4.97
2022-10-07T03:05:00.991Z,6.00
2022-10-07T03:07:29.585Z,4.60
2022-10-07T03:09:57.834Z,4.10
2022-10-07T03:12:26.205Z,4.30
2022-10-07T03:14:55.709Z,4.60
2022-10-07T03:17:23.833Z,4.70
2022-10-07T03:19:51.885Z,5.00
2022-10-07T03:22:20.809Z,4.80
2022-10-07T03:24:48.868Z,5.50
2022-10-07T03:27:16.977Z,5.60
2022-10-07T03:29:45.169Z,4.90
2022-10-07T03:32:15.194Z,6.40
2022-10-07T03:34:43.256Z,5.50
2022-10-07T03:37:11.533Z,5.60
2022-10-07T03:39:39.758Z,5.30
2022-10-07T03:42:08.885Z,5.23
2022-10-07T03:44:38.428Z,6.10
2022-10-07T03:47:10.701Z,5.53
2022-10-07T03:49:41.604Z,5.60
2022-10-07T03:52:09.745Z,5.93
2022-10-07T03:54:37.802Z,5.50
2022-10-07T03:57:26.415Z,5.10
2022-10-07T03:59:54.538Z,4.80
2022-10-07T04:02:23.480Z,4.60
2022-10-07T04:04:53.521Z,3.70
2022-10-07T04:07:22.164Z,3.73
2022-10-07T04:09:50.576Z,3.27
2022-10-07T04:12:18.682Z,2.77
2022-10-07T04:14:46.881Z,2.53
2022-10-07T04:17:14.982Z,2.70
2022-10-07T04:19:43.081Z,2.33
2022-10-07T04:22:12.693Z,3.07
2022-10-07T04:24:40.866Z,3.37
2022-10-07T04:27:10.158Z,2.93
2022-10-07T04:29:39.344Z,3.00
2022-10-07T04:32:08.057Z,3.70
2022-10-07T04:34:36.185Z,3.80
2022-10-07T04:37:05.544Z,3.10
2022-10-07T04:39:59.147Z,3.00
2022-10-07T04:42:41.400Z,2.90
2022-10-07T04:45:10.207Z,2.73
2022-10-07T04:47:38.349Z,3.33
2022-10-07T04:50:08.013Z,3.83
2022-10-07T04:52:36.354Z,3.10
2022-10-07T04:55:06.993Z,2.93
2022-10-07T04:57:35.051Z,3.10
2022-10-07T05:00:03.380Z,3.13
2022-10-07T05:02:31.654Z,3.40
2022-10-07T05:05:00.032Z,3.33
2022-10-07T05:07:28.668Z,3.67
2022-10-07T05:09:56.812Z,3.63
2022-10-07T05:12:26.771Z,5.53
2022-10-07T05:14:54.980Z,7.23
2022-10-07T05:17:23.300Z,9.00
2022-10-07T05:19:51.398Z,6.57
2022-10-07T05:22:19.814Z,6.90
2022-10-07T05:24:47.875Z,5.33
2022-10-07T05:27:16.043Z,6.20
2022-10-07T05:29:45.406Z,5.87
2022-10-07T05:32:13.570Z,4.93
2022-10-07T05:34:41.599Z,5.10
2022-10-07T05:37:09.907Z,5.93
2022-10-07T05:39:38.360Z,4.97
2022-10-07T05:42:06.665Z,5.67
2022-10-07T05:44:34.738Z,6.30
2022-10-07T05:47:07.839Z,5.60
2022-10-07T05:49:37.670Z,5.87
2022-10-07T05:52:07.959Z,5.20
2022-10-07T05:54:37.278Z,6.50
2022-10-07T05:57:06.145Z,5.83
2022-10-07T05:59:34.773Z,4.90
2022-10-07T06:02:04.649Z,5.70
2022-10-07T06:04:33.175Z,7.23
2022-10-07T06:07:05.430Z,6.53
2022-10-07T06:09:50.779Z,6.50
2022-10-07T06:12:36.432Z,6.60
2022-10-07T06:15:09.580Z,5.80
2022-10-07T06:17:47.560Z,6.20
2022-10-07T06:20:16.251Z,6.00
2022-10-07T06:22:44.530Z,6.40
2022-10-07T06:25:12.906Z,5.77
2022-10-07T06:27:41.302Z,5.47
2022-10-07T06:30:10.681Z,6.00
2022-10-07T06:32:40.794Z,6.07
2022-10-07T06:35:10.104Z,6.33
2022-10-07T06:37:39.401Z,5.70
2022-10-07T06:40:08.672Z,5.37
2022-10-07T06:42:39.777Z,5.53
2022-10-07T06:45:10.309Z,5.43
2022-10-07T06:47:39.930Z,6.67
2022-10-07T06:50:08.841Z,6.10
2022-10-07T06:52:41.196Z,6.10
2022-10-07T06:55:11.758Z,5.10
2022-10-07T06:57:46.852Z,4.70
2022-10-07T07:00:15.962Z,4.03
2022-10-07T07:02:45.583Z,4.40
2022-10-07T07:05:16.469Z,3.80
2022-10-07T07:07:44.961Z,3.53
2022-10-07T07:10:13.368Z,4.73
2022-10-07T07:12:41.613Z,3.03
2022-10-07T07:15:10.945Z,3.70
2022-10-07T07:17:39.041Z,4.40
2022-10-07T07:20:09.415Z,3.60
2022-10-07T07:22:37.795Z,4.20
2022-10-07T07:25:06.689Z,4.90
2022-10-07T07:27:34.768Z,4.67
2022-10-07T07:30:03.185Z,5.87
2022-10-07T07:32:31.204Z,4.63
2022-10-07T07:35:00.841Z,5.00
2022-10-07T07:37:30.345Z,6.87
2022-10-07T07:39:58.754Z,6.90
2022-10-07T07:42:28.146Z,8.00
2022-10-07T07:44:57.789Z,7.83
2022-10-07T07:47:26.640Z,7.60
2022-10-07T07:49:54.955Z,7.60
2022-10-07T07:52:25.673Z,8.03
2022-10-07T07:54:58.330Z,7.60
2022-10-07T07:57:27.093Z,8.50
2022-10-07T07:59:55.839Z,7.27
2022-10-07T08:02:24.495Z,8.10
2022-10-07T08:04:54.012Z,6.83
2022-10-07T08:07:22.251Z,7.53
2022-10-07T08:09:51.104Z,7.30
2022-10-07T08:12:23.440Z,5.93
2022-10-07T08:14:52.350Z,9.23
2022-10-07T08:17:20.385Z,8.50
2022-10-07T08:19:48.534Z,9.00
2022-10-07T08:22:18.038Z,8.10
2022-10-07T08:24:47.283Z,9.40
2022-10-07T08:27:15.418Z,7.30
2022-10-07T08:29:45.640Z,8.47
2022-10-07T08:32:13.778Z,7.33
2022-10-07T08:34:41.981Z,7.13
2022-10-07T08:37:10.067Z,7.37
2022-10-07T08:39:38.132Z,7.13
2022-10-07T08:42:13.638Z,7.73
2022-10-07T08:44:45.356Z,6.30
2022-10-07T08:47:24.030Z,6.30
2022-10-07T08:50:04.518Z,6.83
2022-10-07T08:52:43.313Z,6.43
2022-10-07T08:55:18.809Z,7.00
2022-10-07T08:58:06.555Z,6.67
2022-10-07T09:00:43.733Z,5.17
2022-10-07T09:03:24.778Z,4.60
2022-10-07T09:05:56.485Z,5.30
2022-10-07T09:08:30.109Z,4.67
2022-10-07T09:11:15.893Z,6.03
2022-10-07T09:13:49.006Z,5.43
2022-10-07T09:16:22.841Z,4.90
2022-10-07T09:18:54.588Z,6.70
2022-10-07T09:21:26.134Z,5.20
2022-10-07T09:23:58.232Z,6.50
2022-10-07T09:26:28.015Z,5.97
2022-10-07T09:28:56.116Z,5.63
2022-10-07T09:31:26.521Z,5.23
2022-10-07T09:33:55.469Z,4.60
2022-10-07T09:36:25.020Z,5.10
2022-10-07T09:38:53.933Z,4.33
2022-10-07T09:41:31.394Z,5.10
2022-10-07T09:44:06.135Z,4.17
2022-10-07T09:46:48.861Z,5.50
2022-10-07T09:49:41.609Z,4.80
2022-10-07T09:52:24.059Z,4.03
2022-10-07T09:54:54.501Z,4.33
2022-10-07T09:57:34.879Z,4.17
2022-10-07T10:00:24.880Z,4.70
2022-10-07T10:03:04.161Z,4.80
2022-10-07T10:05:35.295Z,5.30
2022-10-07T10:08:20.443Z,5.13
2022-10-07T10:10:53.197Z,4.00
2022-10-07T10:13:31.331Z,5.00
2022-10-07T10:16:00.495Z,4.43
2022-10-07T10:18:38.791Z,3.70
2022-10-07T10:21:22.158Z,3.73
2022-10-07T10:23:52.648Z,4.10
2022-10-07T10:26:48.707Z,4.10
2022-10-07T10:29:30.130Z,3.87
2022-10-07T10:32:27.092Z,4.27
2022-10-07T10:35:04.171Z,3.40
2022-10-07T10:37:58.354Z,3.77
2022-10-07T10:40:33.930Z,4.23
2022-10-07T10:43:20.511Z,4.23
2022-10-07T10:46:01.872Z,4.03
2022-10-07T10:48:40.867Z,4.73
2022-10-07T10:51:24.276Z,4.00
2022-10-07T10:54:05.878Z,4.20
2022-10-07T10:56:41.609Z,4.20
2022-10-07T10:59:22.208Z,3.80
2022-10-07T11:01:56.959Z,4.17
2022-10-07T11:04:43.611Z,3.80
2022-10-07T11:07:20.246Z,4.10
2022-10-07T11:09:52.559Z,3.83
2022-10-07T11:12:26.491Z,3.90
2022-10-07T11:14:59.019Z,4.30
2022-10-07T11:17:32.097Z,3.40
2022-10-07T11:20:13.878Z,3.40
2022-10-07T11:22:49.627Z,4.10
2022-10-07T11:25:26.309Z,4.03
2022-10-07T11:28:01.797Z,4.40
2022-10-07T11:30:37.213Z,4.37
2022-10-07T11:33:11.664Z,4.00
2022-10-07T11:35:45.224Z,4.10
2022-10-07T11:38:20.064Z,5.47
2022-10-07T11:40:52.169Z,4.80
2022-10-07T11:43:27.392Z,4.23
2022-10-07T11:46:02.196Z,4.97
2022-10-07T11:48:39.124Z,4.57
2022-10-07T11:51:25.100Z,4.10
2022-10-07T11:53:59.546Z,3.93
2022-10-07T11:56:29.253Z,4.70
2022-10-07T11:59:02.062Z,5.07
2022-10-07T12:01:49.371Z,9.17
2022-10-07T12:04:43.406Z,5.27
2022-10-07T12:07:40.620Z,4.00
2022-10-07T12:10:32.334Z,4.40
2022-10-07T12:13:20.754Z,4.20
2022-10-07T12:15:49.606Z,4.73
2022-10-07T12:18:33.329Z,4.20
2022-10-07T12:21:09.525Z,4.53
2022-10-07T12:23:46.193Z,4.57
2022-10-07T12:26:53.461Z,4.40
2022-10-07T12:29:50.151Z,4.40
2022-10-07T12:32:59.032Z,4.10
2022-10-07T12:35:54.354Z,4.37
2022-10-07T12:38:25.804Z,4.60
2022-10-07T12:41:04.555Z,4.33
2022-10-07T12:43:45.531Z,4.57
2022-10-07T12:46:18.882Z,3.90
2022-10-07T12:48:50.617Z,4.50
2022-10-07T12:51:24.483Z,3.80
2022-10-07T12:53:53.757Z,4.70
2022-10-07T12:56:27.699Z,4.00
2022-10-07T12:59:40.317Z,3.87
2022-10-07T13:02:53.168Z,3.60
2022-10-07T13:05:55.015Z,5.00
2022-10-07T13:09:08.453Z,4.30
2022-10-07T13:12:13.938Z,4.10
2022-10-07T13:14:51.487Z,5.30
2022-10-07T13:17:28.054Z,4.03
2022-10-07T13:20:05.626Z,4.17
2022-10-07T13:22:34.050Z,4.03
2022-10-07T13:25:05.545Z,4.13
2022-10-07T13:27:37.183Z,3.90
2022-10-07T13:30:07.324Z,3.30
2022-10-07T13:32:36.994Z,4.03
2022-10-07T13:35:29.971Z,3.97
2022-10-07T13:37:58.418Z,4.43
2022-10-07T13:40:28.452Z,4.00
2022-10-07T13:42:59.431Z,3.63
2022-10-07T13:45:28.927Z,4.07
2022-10-07T13:47:58.116Z,3.43
2022-10-07T13:50:31.952Z,3.50
2022-10-07T13:53:03.212Z,3.07
2022-10-07T13:55:38.956Z,4.17
2022-10-07T13:58:07.610Z,3.40
2022-10-07T14:00:48.241Z,3.13
2022-10-07T14:03:20.348Z,3.10
2022-10-07T14:05:53.550Z,3.30
2022-10-07T14:08:27.111Z,3.40
2022-10-07T14:11:02.704Z,3.57
2022-10-07T14:13:31.772Z,2.30
2022-10-07T14:16:01.346Z,2.10
2022-10-07T14:18:31.368Z,2.83
2022-10-07T14:21:17.581Z,2.20
2022-10-07T14:23:49.737Z,2.73
2022-10-07T14:26:19.166Z,2.60
2022-10-07T14:28:47.394Z,3.10
2022-10-07T14:31:39.329Z,3.27
2022-10-07T14:34:32.212Z,3.27
2022-10-07T14:37:09.291Z,3.10
2022-10-07T14:39:39.699Z,2.70
2022-10-07T14:42:13.101Z,2.80
2022-10-07T14:44:44.055Z,2.87
2022-10-07T14:47:15.102Z,2.13
2022-10-07T14:49:43.612Z,2.57
2022-10-07T14:52:18.356Z,2.97
2022-10-07T14:54:46.768Z,2.23
2022-10-07T14:57:15.107Z,2.60
2022-10-07T14:59:43.384Z,2.80
2022-10-07T15:02:13.680Z,2.90
2022-10-07T15:04:45.532Z,2.03
2022-10-07T15:07:18.410Z,2.47
2022-10-07T15:09:48.181Z,3.03
2022-10-07T15:12:21.664Z,3.30
2022-10-07T15:14:52.249Z,3.63
2022-10-07T15:17:23.656Z,2.53
2022-10-07T15:19:53.147Z,2.80
2022-10-07T15:22:22.629Z,3.10
2022-10-07T15:24:51.321Z,3.13
2022-10-07T15:27:19.947Z,2.90
2022-10-07T15:29:48.059Z,3.00
2022-10-07T15:32:16.251Z,2.40
2022-10-07T15:34:45.947Z,3.00
2022-10-07T15:37:14.734Z,2.83
2022-10-07T15:39:44.392Z,3.30
2022-10-07T15:42:13.018Z,3.10
2022-10-07T15:44:45.063Z,2.70
2022-10-07T15:47:17.463Z,3.27
2022-10-07T15:49:46.902Z,3.07
2022-10-07T15:52:15.607Z,3.53
2022-10-07T15:54:46.454Z,3.23
2022-10-07T15:57:16.100Z,2.70
2022-10-07T15:59:44.754Z,3.40
2022-10-07T16:02:16.775Z,3.43
2022-10-07T16:04:47.339Z,3.00
2022-10-07T16:07:15.458Z,2.53
2022-10-07T16:09:44.819Z,4.23
2022-10-07T16:12:13.673Z,4.00
2022-10-07T16:14:41.686Z,3.50
2022-10-07T16:17:09.754Z,3.20
2022-10-07T16:19:37.657Z,4.20
2022-10-07T16:22:05.705Z,4.10
2022-10-07T16:24:35.496Z,4.70
2022-10-07T16:27:05.688Z,4.23
2022-10-07T16:29:53.402Z,4.30
2022-10-07T16:32:21.469Z,3.53
2022-10-07T16:34:49.666Z,4.20
2022-10-07T16:37:18.003Z,3.80
2022-10-07T16:39:46.444Z,4.40
2022-10-07T16:42:17.800Z,4.47
2022-10-07T16:44:50.655Z,3.60
2022-10-07T16:47:19.818Z,4.07
2022-10-07T16:49:48.153Z,4.30
2022-10-07T16:52:16.285Z,4.10
2022-10-07T16:54:44.399Z,3.77
2022-10-07T16:57:15.090Z,4.20
2022-10-07T16:59:46.991Z,4.33
2022-10-07T17:02:15.231Z,5.70
2022-10-07T17:04:43.451Z,4.83
2022-10-07T17:07:11.839Z,7.13
2022-10-07T17:09:40.604Z,4.80
2022-10-07T17:12:09.953Z,4.60
2022-10-07T17:14:39.114Z,5.93
2022-10-07T17:17:08.806Z,6.07
2022-10-07T17:19:37.708Z,6.07
2022-10-07T17:22:05.904Z,6.73
2022-10-07T17:24:34.005Z,6.30
2022-10-07T17:27:02.424Z,5.80
2022-10-07T17:29:35.023Z,6.20
2022-10-07T17:32:05.643Z,6.07
2022-10-07T17:34:35.384Z,5.37
2022-10-07T17:37:03.444Z,4.77
2022-10-07T17:39:32.103Z,4.67
2022-10-07T17:42:00.134Z,5.40
2022-10-07T17:44:28.362Z,5.60
2022-10-07T17:46:58.957Z,5.27
2022-10-07T17:49:27.142Z,4.23
2022-10-07T17:51:57.341Z,5.30
2022-10-07T17:54:25.572Z,4.90
2022-10-07T17:56:53.839Z,5.23
2022-10-07T17:59:21.842Z,5.23
2022-10-07T18:01:49.898Z,4.07
2022-10-07T18:04:24.755Z,4.70
2022-10-07T18:06:53.420Z,3.63
2022-10-07T18:09:24.371Z,4.30
2022-10-07T18:12:09.848Z,4.90
2022-10-07T18:14:55.321Z,4.43
2022-10-07T18:17:26.672Z,4.60
2022-10-07T18:19:58.429Z,5.20
2022-10-07T18:22:27.109Z,4.40
2022-10-07T18:24:58.564Z,5.87
2022-10-07T18:27:27.338Z,6.43
2022-10-07T18:29:55.895Z,6.93
2022-10-07T18:32:24.958Z,9.20
2022-10-07T18:34:53.020Z,7.10
2022-10-07T18:37:21.156Z,6.93
2022-10-07T18:39:49.182Z,7.07
2022-10-07T18:42:18.834Z,6.97
2022-10-07T18:44:47.355Z,6.50
2022-10-07T18:47:15.642Z,7.03
2022-10-07T18:49:43.651Z,6.80
2022-10-07T18:52:11.704Z,8.37
2022-10-07T18:54:39.859Z,7.90
2022-10-07T18:57:08.166Z,7.50
2022-10-07T18:59:37.813Z,8.33
2022-10-07T19:02:06.054Z,8.80
2022-10-07T19:04:34.156Z,6.87
2022-10-07T19:07:03.080Z,7.07
2022-10-07T19:09:31.247Z,7.50
2022-10-07T19:11:59.512Z,7.30
2022-10-07T19:14:28.128Z,8.10
2022-10-07T19:16:57.793Z,7.23
2022-10-07T19:19:26.641Z,8.00
2022-10-07T19:21:55.988Z,7.43
2022-10-07T19:24:45.531Z,8.67
2022-10-07T19:27:14.353Z,7.83
2022-10-07T19:29:42.421Z,8.03
2022-10-07T19:32:13.138Z,6.77
2022-10-07T19:34:44.716Z,7.00
2022-10-07T19:37:13.045Z,7.07
2022-10-07T19:39:41.181Z,7.13
2022-10-07T19:42:09.260Z,7.20
2022-10-07T19:44:38.530Z,7.20
2022-10-07T19:47:06.797Z,7.17
2022-10-07T19:49:37.522Z,6.70
2022-10-07T19:52:05.658Z,7.30
2022-10-07T19:54:36.017Z,7.50
2022-10-07T19:57:04.535Z,6.97
2022-10-07T19:59:32.588Z,7.90
2022-10-07T20:02:01.346Z,7.90
2022-10-07T20:04:30.268Z,7.80
2022-10-07T20:06:59.643Z,7.70
2022-10-07T20:09:28.351Z,7.33
2022-10-07T20:11:56.852Z,8.10
2022-10-07T20:14:24.931Z,8.70
2022-10-07T20:16:55.636Z,8.10
2022-10-07T20:19:23.881Z,9.13
2022-10-07T20:21:52.033Z,7.80
2022-10-07T20:24:21.620Z,8.70
2022-10-07T20:26:49.710Z,8.03
2022-10-07T20:29:21.466Z,7.97
2022-10-07T20:31:52.545Z,9.80
2022-10-07T20:34:20.883Z,9.30
2022-10-07T20:36:50.495Z,9.83
2022-10-07T20:39:39.437Z,10.20
2022-10-07T20:42:24.570Z,9.80
2022-10-07T20:44:54.110Z,11.10
2022-10-07T20:47:23.549Z,11.30
2022-10-07T20:52:26.094Z,11.77
2022-10-07T20:54:59.038Z,12.83
2022-10-07T20:57:28.996Z,12.10
2022-10-07T20:59:57.170Z,12.17
2022-10-07T21:02:28.510Z,11.60
2022-10-07T21:04:56.627Z,12.03
2022-10-07T21:07:24.741Z,10.53
2022-10-07T21:09:52.960Z,11.47
2022-10-07T21:12:22.401Z,9.93
2022-10-07T21:14:51.232Z,9.43
2022-10-07T21:17:19.356Z,10.37
2022-10-07T21:19:47.602Z,9.67
2022-10-07T21:22:15.960Z,10.67
2022-10-07T21:24:44.014Z,11.10
2022-10-07T21:27:12.258Z,10.03
2022-10-07T21:29:43.264Z,11.10
2022-10-07T21:32:13.872Z,10.60
2022-10-07T21:34:41.999Z,10.67
2022-10-07T21:37:10.205Z,10.70
2022-10-07T21:39:38.245Z,10.57
2022-10-07T21:42:06.754Z,10.57
2022-10-07T21:44:35.686Z,10.50
2022-10-07T21:47:05.267Z,11.10
2022-10-07T21:49:33.305Z,11.97
2022-10-07T21:52:01.344Z,12.03
2022-10-07T21:54:30.386Z,10.80
2022-10-07T21:56:58.626Z,12.17
2022-10-07T21:59:26.626Z,11.83
2022-10-07T22:01:58.154Z,11.77
2022-10-07T22:04:30.750Z,11.53
2022-10-07T22:07:16.656Z,12.67
2022-10-07T22:09:44.700Z,13.37
2022-10-07T22:12:13.533Z,13.77
2022-10-07T22:14:41.607Z,13.50
2022-10-07T22:17:10.124Z,14.73
2022-10-07T22:19:39.456Z,14.27
2022-10-07T22:22:07.905Z,14.07
2022-10-07T22:24:36.084Z,14.47
2022-10-07T22:27:04.516Z,15.40
2022-10-07T22:29:32.597Z,14.10
2022-10-07T22:32:00.656Z,12.97
2022-10-07T22:34:46.621Z,13.63
2022-10-07T22:37:16.095Z,14.17
2022-10-07T22:39:44.124Z,14.73
2022-10-07T22:42:12.518Z,16.70
2022-10-07T22:44:40.537Z,16.30
2022-10-07T22:47:08.586Z,15.77
2022-10-07T22:49:36.660Z,14.60
2022-10-07T22:52:05.076Z,14.63
2022-10-07T22:54:34.502Z,16.03
2022-10-07T22:57:02.998Z,15.23
2022-10-07T22:59:31.003Z,15.50
2022-10-07T23:01:59.180Z,15.03
2022-10-07T23:04:27.214Z,16.27
2022-10-07T23:06:55.395Z,16.07
2022-10-07T23:09:23.439Z,16.50
2022-10-07T23:11:53.124Z,15.63
2022-10-07T23:14:21.134Z,15.13
2022-10-07T23:16:49.219Z,14.93
2022-10-07T23:19:17.215Z,15.27
2022-10-07T23:21:45.815Z,15.07
2022-10-07T23:24:15.909Z,15.40
2022-10-07T23:26:45.979Z,16.87
2022-10-07T23:29:15.750Z,14.87
2022-10-07T23:31:45.188Z,14.90
2022-10-07T23:34:13.884Z,16.07
2022-10-07T23:36:42.016Z,15.03
2022-10-07T23:39:10.186Z,14.83
2022-10-07T23:41:38.260Z,16.63
2022-10-07T23:44:06.394Z,17.60
2022-10-07T23:46:36.675Z,15.87
2022-10-07T23:49:05.654Z,17.00
2022-10-07T23:51:34.734Z,16.37
2022-10-07T23:54:04.252Z,17.73
2022-10-07T23:56:33.363Z,18.07
2022-10-07T23:59:02.863Z,16.27
